Time;durP1;ratioP1;P1;durP2;ratioP2;P2;SDS_P1;SDS_P2;PMS_P1;PMS_P2;Temp;Humidity;BMP_temperature;BMP_pressure;BME280_temperature;BME280_humidity;BME280_pressure;Samples;Min_cycle;Max_cycle;Signal;HPM_P1;HPM_P2
2024/01/03 00:01:15;;;;;;;;;4.00;2.75;;;;;;;;5089252;28;8802;-82
2024/01/03 00:06:45;;;;;;;;;1.67;1.00;;;;;;;;5073267;28;8945;-82
2024/01/03 00:09:18;;;;;;;;;5.67;2.67;;;;;;;;5073024;28;8964;-80
2024/01/03 00:11:45;;;;;;;;;4.67;2.67;;;;;;;;5069643;28;9081;-81
2024/01/03 00:14:29;;;;;;;;;3.50;1.25;;;;;;;;5071706;28;8956;-84
2024/01/03 00:17:01;;;;;;;;;1.33;1.33;;;;;;;;5065268;28;8873;-82
2024/01/03 00:19:29;;;;;;;;;4.67;1.67;;;;;;;;5058869;28;8985;-84
2024/01/03 00:21:57;;;;;;;;;2.33;1.67;;;;;;;;5065122;28;8966;-82
2024/01/03 00:24:24;;;;;;;;;1.00;1.00;;;;;;;;5071372;28;9064;-82
2024/01/03 00:26:52;;;;;;;;;3.67;2.33;;;;;;;;5073018;28;8937;-82
2024/01/03 00:29:51;;;;;;;;;1.00;1.00;;;;;;;;5071944;28;9088;-83
2024/01/03 00:32:19;;;;;;;;;2.00;1.00;;;;;;;;5060400;28;8811;-83
2024/01/03 00:34:46;;;;;;;;;5.25;3.75;;;;;;;;5064780;28;8857;-80
2024/01/03 00:37:26;;;;;;;;;1.00;1.00;;;;;;;;5057704;28;8862;-81
2024/01/03 00:39:55;;;;;;;;;1.50;0.50;;;;;;;;5055105;28;8841;-86
2024/01/03 00:42:25;;;;;;;;;3.75;1.25;;;;;;;;5068961;28;8973;-89
2024/01/03 00:44:54;;;;;;;;;2.00;2.00;;;;;;;;5070927;28;8859;-82
2024/01/03 00:47:23;;;;;;;;;6.50;1.00;;;;;;;;5068268;28;8928;-82
2024/01/03 00:49:50;;;;;;;;;3.75;2.25;;;;;;;;5064371;28;8879;-84
2024/01/03 00:52:18;;;;;;;;;2.50;1.50;;;;;;;;5067480;28;8875;-81
2024/01/03 00:54:47;;;;;;;;;2.25;2.25;;;;;;;;5060393;28;8864;-81
2024/01/03 00:57:15;;;;;;;;;1.50;1.00;;;;;;;;5061983;28;8871;-83
2024/01/03 00:59:44;;;;;;;;;2.75;1.00;;;;;;;;5073452;28;8859;-81
2024/01/03 01:02:13;;;;;;;;;4.25;3.50;;;;;;;;5073664;28;8791;-83
2024/01/03 01:04:41;;;;;;;;;4.25;1.75;;;;;;;;5074460;28;8862;-82
2024/01/03 01:07:09;;;;;;;;;4.00;3.00;;;;;;;;5075699;28;8843;-82
2024/01/03 01:09:36;;;;;;;;;5.00;3.00;;;;;;;;5070934;28;8927;-82
2024/01/03 01:12:04;;;;;;;;;3.25;1.50;;;;;;;;5073604;28;8965;-81
2024/01/03 01:14:31;;;;;;;;;6.00;2.50;;;;;;;;5075495;28;8843;-81
2024/01/03 01:16:58;;;;;;;;;3.25;1.25;;;;;;;;5068582;28;9310;-81
2024/01/03 01:19:27;;;;;;;;;2.25;2.25;;;;;;;;5067472;28;8854;-82
2024/01/03 01:21:55;;;;;;;;;3.00;2.25;;;;;;;;5061357;28;9663;-82
2024/01/03 01:24:22;;;;;;;;;2.00;2.00;;;;;;;;5071883;28;8869;-82
2024/01/03 01:26:49;;;;;;;;;3.00;1.25;;;;;;;;5073351;28;8839;-81
2024/01/03 01:29:16;;;;;;;;;4.75;3.25;;;;;;;;5070090;28;9013;-83
2024/01/03 01:31:44;;;;;;;;;3.25;3.00;;;;;;;;5061904;28;8891;-83
2024/01/03 01:34:11;;;;;;;;;3.75;2.75;;;;;;;;5063929;28;8863;-85
2024/01/03 01:36:40;;;;;;;;;1.00;1.00;;;;;;;;5069713;28;8865;-80
2024/01/03 01:39:10;;;;;;;;;3.75;2.00;;;;;;;;5069398;28;8896;-82
2024/01/03 01:41:37;;;;;;;;;6.50;3.00;;;;;;;;5069843;28;8880;-82
2024/01/03 01:44:05;;;;;;;;;4.00;2.75;;;;;;;;5069585;28;8858;-82
2024/01/03 01:46:32;;;;;;;;;4.00;1.75;;;;;;;;5061246;28;8849;-82
2024/01/03 01:49:00;;;;;;;;;5.25;2.50;;;;;;;;5065400;28;8873;-83
2024/01/03 01:51:30;;;;;;;;;2.75;1.00;;;;;;;;5066095;28;8900;-84
2024/01/03 01:54:02;;;;;;;;;4.00;2.00;;;;;;;;5070554;28;8831;-81
2024/01/03 01:56:30;;;;;;;;;5.25;1.75;;;;;;;;5059773;28;9180;-82
2024/01/03 01:59:00;;;;;;;;;2.25;2.25;;;;;;;;5069120;28;9610;-81
2024/01/03 02:01:28;;;;;;;;;5.75;4.25;;;;;;;;5068438;28;8810;-83
2024/01/03 02:03:56;;;;;;;;;4.00;1.00;;;;;;;;5069132;28;8858;-83
2024/01/03 02:06:24;;;;;;;;;2.00;1.75;;;;;;;;5069266;28;8889;-83
2024/01/03 02:08:52;;;;;;;;;2.00;2.00;;;;;;;;5059544;28;9663;-81
2024/01/03 02:11:21;;;;;;;;;2.75;2.75;;;;;;;;5070323;28;8867;-83
2024/01/03 02:13:50;;;;;;;;;4.50;3.25;;;;;;;;5057805;28;8843;-82
2024/01/03 02:16:20;;;;;;;;;2.00;1.00;;;;;;;;5062503;28;8827;-83
2024/01/03 02:18:48;;;;;;;;;3.00;1.75;;;;;;;;5064555;28;8841;-84
2024/01/03 02:21:17;;;;;;;;;1.00;1.00;;;;;;;;5061127;28;8977;-82
2024/01/03 02:23:44;;;;;;;;;4.50;2.00;;;;;;;;5059462;28;8871;-82
2024/01/03 02:26:12;;;;;;;;;2.75;1.50;;;;;;;;5060118;28;8847;-82
2024/01/03 02:28:40;;;;;;;;;3.25;1.25;;;;;;;;5067272;28;8980;-83
2024/01/03 02:31:09;;;;;;;;;1.50;1.50;;;;;;;;5073649;28;8795;-81
2024/01/03 02:33:38;;;;;;;;;1.75;1.00;;;;;;;;5083157;28;8872;-81
2024/01/03 02:36:08;;;;;;;;;7.00;2.00;;;;;;;;5058024;28;8976;-81
2024/01/03 02:38:37;;;;;;;;;3.00;1.25;;;;;;;;5069397;28;8878;-80
2024/01/03 02:41:04;;;;;;;;;5.25;1.00;;;;;;;;5068977;28;9659;-81
2024/01/03 02:43:31;;;;;;;;;1.25;1.25;;;;;;;;5050949;28;8979;-80
2024/01/03 02:46:00;;;;;;;;;3.00;2.50;;;;;;;;5062394;28;8859;-80
2024/01/03 02:48:27;;;;;;;;;5.25;3.00;;;;;;;;5060218;28;8999;-82
2024/01/03 02:50:54;;;;;;;;;7.00;2.75;;;;;;;;5075955;28;8846;-80
2024/01/03 02:53:22;;;;;;;;;1.75;1.75;;;;;;;;5075990;28;8864;-81
2024/01/03 02:55:50;;;;;;;;;1.00;1.00;;;;;;;;5071796;28;8892;-81
2024/01/03 02:58:17;;;;;;;;;2.50;1.00;;;;;;;;5069470;28;8963;-80
2024/01/03 03:00:45;;;;;;;;;4.50;1.75;;;;;;;;5072153;28;8789;-82
2024/01/03 03:03:12;;;;;;;;;5.25;2.75;;;;;;;;5069209;28;8883;-81
2024/01/03 03:05:39;;;;;;;;;4.00;1.25;;;;;;;;5066799;28;9714;-82
2024/01/03 03:08:07;;;;;;;;;2.00;2.00;;;;;;;;5063413;28;8834;-83
2024/01/03 03:10:36;;;;;;;;;5.50;0.75;;;;;;;;5073144;28;8884;-83
2024/01/03 03:13:05;;;;;;;;;1.75;1.00;;;;;;;;5073311;28;8982;-82
2024/01/03 03:15:32;;;;;;;;;2.75;0.00;;;;;;;;5064402;28;8877;-82
2024/01/03 03:18:02;;;;;;;;;5.75;3.50;;;;;;;;5072693;28;8859;-82
2024/01/03 03:20:32;;;;;;;;;1.50;0.50;;;;;;;;5073311;28;8842;-81
2024/01/03 03:22:59;;;;;;;;;5.50;2.00;;;;;;;;5066401;28;8865;-82
2024/01/03 03:25:28;;;;;;;;;1.50;1.50;;;;;;;;5064005;28;8974;-81
2024/01/03 03:27:55;;;;;;;;;1.50;1.50;;;;;;;;5070324;28;8847;-82
2024/01/03 03:30:24;;;;;;;;;4.00;1.00;;;;;;;;5068987;28;8863;-81
2024/01/03 03:32:51;;;;;;;;;4.25;2.25;;;;;;;;5070774;28;8863;-82
2024/01/03 03:35:18;;;;;;;;;1.00;1.00;;;;;;;;5070809;28;8858;-83
2024/01/03 03:37:45;;;;;;;;;1.25;1.25;;;;;;;;5059280;28;8889;-85
2024/01/03 03:40:13;;;;;;;;;2.50;2.00;;;;;;;;5071196;28;9630;-83
2024/01/03 03:42:40;;;;;;;;;1.25;1.00;;;;;;;;5074001;28;9786;-83
2024/01/03 03:45:13;;;;;;;;;1.75;1.75;;;;;;;;5060187;28;8951;-82
2024/01/03 03:47:42;;;;;;;;;2.00;1.00;;;;;;;;5070932;28;9700;-83
2024/01/03 03:50:09;;;;;;;;;2.75;1.75;;;;;;;;5069498;28;8981;-83
2024/01/03 03:52:39;;;;;;;;;1.75;0.50;;;;;;;;5051707;28;9000;-82
2024/01/03 03:55:07;;;;;;;;;1.75;1.75;;;;;;;;5067277;28;8863;-81
2024/01/03 03:57:34;;;;;;;;;2.25;1.25;;;;;;;;5070863;28;8867;-81
2024/01/03 04:00:03;;;;;;;;;6.00;4.00;;;;;;;;5070533;28;8847;-81
2024/01/03 04:02:33;;;;;;;;;6.50;1.75;;;;;;;;5071077;28;8833;-81
2024/01/03 04:05:02;;;;;;;;;0.00;0.00;;;;;;;;5071225;28;8892;-83
2024/01/03 04:07:31;;;;;;;;;3.75;1.50;;;;;;;;5070751;28;8931;-82
2024/01/03 04:09:58;;;;;;;;;3.00;2.75;;;;;;;;5070092;28;8871;-82
2024/01/03 04:12:25;;;;;;;;;4.75;2.00;;;;;;;;5070484;28;8855;-81
2024/01/03 04:14:53;;;;;;;;;2.75;2.00;;;;;;;;5068986;28;8858;-82
2024/01/03 04:17:21;;;;;;;;;3.75;1.75;;;;;;;;5071041;28;8851;-84
2024/01/03 04:19:48;;;;;;;;;2.50;1.00;;;;;;;;5069402;28;8978;-81
2024/01/03 04:22:17;;;;;;;;;3.25;1.25;;;;;;;;5070757;28;8863;-80
2024/01/03 04:24:44;;;;;;;;;3.00;1.00;;;;;;;;5058203;28;8851;-79
2024/01/03 04:27:11;;;;;;;;;2.75;1.00;;;;;;;;5069997;28;8862;-80
2024/01/03 04:29:40;;;;;;;;;1.25;1.25;;;;;;;;5071038;28;8860;-81
2024/01/03 04:32:07;;;;;;;;;4.25;1.00;;;;;;;;5069255;28;8813;-82
2024/01/03 04:34:36;;;;;;;;;1.00;1.00;;;;;;;;5059724;28;8846;-82
2024/01/03 04:37:04;;;;;;;;;2.25;1.00;;;;;;;;5071807;28;8870;-80
2024/01/03 04:39:32;;;;;;;;;1.25;1.00;;;;;;;;5073847;28;8851;-82
2024/01/03 04:42:00;;;;;;;;;0.00;0.00;;;;;;;;5073146;28;8855;-81
2024/01/03 04:44:27;;;;;;;;;4.50;1.00;;;;;;;;5074981;28;8878;-83
2024/01/03 04:46:54;;;;;;;;;2.25;1.00;;;;;;;;5067350;28;8858;-82
2024/01/03 04:49:21;;;;;;;;;6.00;2.00;;;;;;;;5074781;28;8886;-81
2024/01/03 04:51:49;;;;;;;;;1.75;0.00;;;;;;;;5074665;28;8831;-81
2024/01/03 04:54:16;;;;;;;;;0.00;0.00;;;;;;;;5075567;28;8954;-81
2024/01/03 04:56:48;;;;;;;;;2.00;0.25;;;;;;;;5064303;28;8988;-81
2024/01/03 04:59:15;;;;;;;;;1.00;1.00;;;;;;;;5063220;28;8861;-81
2024/01/03 05:01:42;;;;;;;;;2.00;0.00;;;;;;;;5071783;28;8799;-82
2024/01/03 05:04:10;;;;;;;;;1.00;1.00;;;;;;;;5089035;28;8841;-83
2024/01/03 05:06:38;;;;;;;;;0.00;0.00;;;;;;;;5086989;28;8924;-81
2024/01/03 05:09:06;;;;;;;;;1.00;1.00;;;;;;;;5060078;28;8870;-84
2024/01/03 05:11:33;;;;;;;;;1.00;0.00;;;;;;;;5053123;28;9273;-81
2024/01/03 05:14:02;;;;;;;;;0.00;0.00;;;;;;;;5062780;28;8932;-83
2024/01/03 05:16:32;;;;;;;;;1.00;1.00;;;;;;;;5058196;28;8937;-83
2024/01/03 05:19:00;;;;;;;;;1.00;0.00;;;;;;;;5065175;28;9001;-80
2024/01/03 05:21:27;;;;;;;;;0.50;0.00;;;;;;;;5068587;28;8858;-84
2024/01/03 05:23:54;;;;;;;;;1.25;1.00;;;;;;;;5066191;28;8847;-82
2024/01/03 05:26:21;;;;;;;;;1.75;1.00;;;;;;;;5068447;28;8977;-84
2024/01/03 05:28:49;;;;;;;;;2.25;1.00;;;;;;;;5071097;28;8871;-83
2024/01/03 05:31:19;;;;;;;;;1.00;1.00;;;;;;;;5073940;28;8779;-82
2024/01/03 05:33:47;;;;;;;;;0.00;0.00;;;;;;;;5072387;28;8847;-82
2024/01/03 05:36:17;;;;;;;;;2.00;0.50;;;;;;;;5072618;28;8986;-81
2024/01/03 05:38:44;;;;;;;;;0.50;0.50;;;;;;;;5069741;28;8903;-83
2024/01/03 05:41:12;;;;;;;;;0.50;0.00;;;;;;;;5069012;28;8867;-82
2024/01/03 05:43:41;;;;;;;;;1.50;1.00;;;;;;;;5068741;28;8995;-82
2024/01/03 05:46:08;;;;;;;;;1.00;1.00;;;;;;;;5069255;28;8839;-83
2024/01/03 05:48:39;;;;;;;;;1.75;0.75;;;;;;;;5068375;28;8846;-84
2024/01/03 05:51:07;;;;;;;;;2.75;0.00;;;;;;;;5069033;28;8974;-83
2024/01/03 05:53:34;;;;;;;;;0.50;0.50;;;;;;;;5068352;28;8851;-83
2024/01/03 05:56:04;;;;;;;;;2.00;1.00;;;;;;;;5069292;28;8894;-86
2024/01/03 05:58:31;;;;;;;;;3.00;1.33;;;;;;;;5068230;28;8859;-83
2024/01/03 06:01:00;;;;;;;;;1.50;0.00;;;;;;;;5068459;28;8893;-84
2024/01/03 06:03:28;;;;;;;;;2.25;0.00;;;;;;;;5068670;28;9681;-83
2024/01/03 06:05:56;;;;;;;;;1.00;1.00;;;;;;;;5071152;28;8843;-82
2024/01/03 06:08:23;;;;;;;;;1.50;0.00;;;;;;;;5067877;28;9001;-77
2024/01/03 06:10:51;;;;;;;;;2.00;2.00;;;;;;;;5068163;28;8904;-79
2024/01/03 06:13:21;;;;;;;;;0.75;0.75;;;;;;;;5068336;28;8861;-79
2024/01/03 06:15:49;;;;;;;;;4.25;0.50;;;;;;;;5067971;28;8858;-81
2024/01/03 06:18:16;;;;;;;;;0.00;0.00;;;;;;;;5056162;28;8865;-82
2024/01/03 06:20:44;;;;;;;;;1.00;1.00;;;;;;;;5068166;28;8873;-81
2024/01/03 06:23:12;;;;;;;;;2.25;1.00;;;;;;;;5061384;28;9733;-80
2024/01/03 06:25:39;;;;;;;;;4.33;2.00;;;;;;;;5062888;28;8850;-80
2024/01/03 06:28:07;;;;;;;;;1.00;1.00;;;;;;;;5070062;28;8964;-81
2024/01/03 06:30:35;;;;;;;;;2.00;0.00;;;;;;;;5070101;28;8975;-81
2024/01/03 06:33:02;;;;;;;;;4.75;2.00;;;;;;;;5072989;28;8875;-80
2024/01/03 06:35:30;;;;;;;;;4.33;1.67;;;;;;;;5063476;28;8857;-83
2024/01/03 06:37:57;;;;;;;;;1.33;1.00;;;;;;;;5073833;28;9025;-82
2024/01/03 06:40:25;;;;;;;;;3.00;2.67;;;;;;;;5063125;28;9071;-81
2024/01/03 06:42:55;;;;;;;;;2.00;2.00;;;;;;;;5058505;28;9055;-82
2024/01/03 06:45:22;;;;;;;;;1.25;1.00;;;;;;;;5066885;28;9061;-81
2024/01/03 06:47:49;;;;;;;;;5.00;2.00;;;;;;;;5051260;28;8845;-81
2024/01/03 06:50:16;;;;;;;;;0.67;0.67;;;;;;;;5062973;28;8961;-78
2024/01/03 06:52:44;;;;;;;;;2.00;1.00;;;;;;;;5050944;28;9041;-81
2024/01/03 06:55:11;;;;;;;;;3.00;1.33;;;;;;;;5068041;28;8938;-81
2024/01/03 06:57:39;;;;;;;;;0.33;0.00;;;;;;;;5060788;28;9130;-82
2024/01/03 07:00:08;;;;;;;;;1.33;1.00;;;;;;;;5065402;28;8959;-81
2024/01/03 07:02:35;;;;;;;;;1.00;1.00;;;;;;;;5067489;28;8936;-79
2024/01/03 07:05:02;;;;;;;;;4.67;0.00;;;;;;;;5066614;28;8951;-80
2024/01/03 07:07:32;;;;;;;;;0.50;0.25;;;;;;;;5058899;28;9036;-81
2024/01/03 07:09:59;;;;;;;;;1.67;0.33;;;;;;;;5062843;28;8850;-79
2024/01/03 07:12:26;;;;;;;;;2.00;0.00;;;;;;;;5059955;28;8946;-81
2024/01/03 07:14:56;;;;;;;;;0.00;0.00;;;;;;;;5067862;28;8885;-80
2024/01/03 07:17:25;;;;;;;;;0.50;0.50;;;;;;;;5058964;28;8877;-79
2024/01/03 07:19:52;;;;;;;;;2.33;2.00;;;;;;;;5058633;28;8855;-79
2024/01/03 07:22:19;;;;;;;;;0.50;0.50;;;;;;;;5069697;28;9136;-75
2024/01/03 07:24:47;;;;;;;;;2.00;0.00;;;;;;;;5055725;28;8847;-79
2024/01/03 07:27:14;;;;;;;;;4.25;2.50;;;;;;;;5064494;28;8858;-78
2024/01/03 07:29:42;;;;;;;;;0.00;0.00;;;;;;;;5068015;28;8855;-79
2024/01/03 07:32:10;;;;;;;;;2.67;2.00;;;;;;;;5068986;28;8807;-78
2024/01/03 07:34:38;;;;;;;;;2.00;0.00;;;;;;;;5077847;28;8930;-78
2024/01/03 07:37:07;;;;;;;;;3.00;0.00;;;;;;;;5092053;28;8963;-81
2024/01/03 07:39:34;;;;;;;;;1.00;1.00;;;;;;;;5071486;28;8863;-82
2024/01/03 07:42:01;;;;;;;;;3.50;0.00;;;;;;;;5070958;28;8862;-79
2024/01/03 07:44:33;;;;;;;;;1.50;0.50;;;;;;;;5070365;28;8847;-81
2024/01/03 07:47:03;;;;;;;;;0.00;0.00;;;;;;;;5071001;28;8837;-81
2024/01/03 07:49:32;;;;;;;;;3.00;1.00;;;;;;;;5070281;28;9075;-78
2024/01/03 07:51:59;;;;;;;;;3.33;0.67;;;;;;;;5070815;28;8838;-80
2024/01/03 07:54:26;;;;;;;;;3.25;1.50;;;;;;;;5070678;28;8935;-83
2024/01/03 07:56:56;;;;;;;;;2.00;0.50;;;;;;;;5069621;28;9654;-80
2024/01/03 07:59:23;;;;;;;;;3.00;1.25;;;;;;;;5070224;28;8859;-82
2024/01/03 08:01:51;;;;;;;;;1.75;1.00;;;;;;;;5070052;28;8822;-86
2024/01/03 08:04:21;;;;;;;;;2.00;2.00;;;;;;;;5069926;28;8843;-81
2024/01/03 08:06:50;;;;;;;;;3.33;2.00;;;;;;;;5071331;28;8939;-83
2024/01/03 08:09:17;;;;;;;;;1.00;1.00;;;;;;;;5071311;28;8942;-79
2024/01/03 08:11:47;;;;;;;;;1.00;1.00;;;;;;;;5071226;28;9046;-82
2024/01/03 08:14:15;;;;;;;;;0.75;0.75;;;;;;;;5071708;28;8843;-82
2024/01/03 08:16:42;;;;;;;;;3.50;2.00;;;;;;;;5062156;28;9636;-80
2024/01/03 08:19:12;;;;;;;;;1.25;1.25;;;;;;;;5074495;28;8859;-81
2024/01/03 08:21:39;;;;;;;;;2.00;2.00;;;;;;;;5071842;28;8863;-81
2024/01/03 08:24:08;;;;;;;;;5.50;4.00;;;;;;;;5070630;28;8846;-79
2024/01/03 08:26:35;;;;;;;;;3.67;1.00;;;;;;;;5075609;28;8990;-80
2024/01/03 08:29:03;;;;;;;;;3.00;2.00;;;;;;;;5072736;28;8941;-79
2024/01/03 08:31:31;;;;;;;;;3.75;1.25;;;;;;;;5073918;28;8896;-81
2024/01/03 08:33:58;;;;;;;;;1.00;1.00;;;;;;;;5063083;28;8877;-80
2024/01/03 08:36:39;;;;;;;;;3.00;1.00;;;;;;;;5070897;28;8919;-79
2024/01/03 08:39:09;;;;;;;;;2.33;2.33;;;;;;;;5071594;28;8934;-75
2024/01/03 08:41:36;;;;;;;;;2.00;2.00;;;;;;;;5072340;28;9026;-80
2024/01/03 08:44:07;;;;;;;;;1.00;1.00;;;;;;;;5072579;28;9091;-79
2024/01/03 08:46:39;;;;;;;;;3.00;1.67;;;;;;;;5069291;28;8981;-78
2024/01/03 08:49:06;;;;;;;;;6.00;1.00;;;;;;;;5056816;28;8954;-74
2024/01/03 08:51:33;;;;;;;;;1.33;1.33;;;;;;;;5056782;28;9646;-77
2024/01/03 08:54:01;;;;;;;;;2.00;2.00;;;;;;;;5069669;28;9745;-76
2024/01/03 08:56:29;;;;;;;;;4.67;3.00;;;;;;;;5069011;28;9097;-76
2024/01/03 08:58:56;;;;;;;;;1.00;1.00;;;;;;;;5063444;28;8948;-76
2024/01/03 09:01:27;;;;;;;;;3.00;1.00;;;;;;;;5064505;28;8911;-75
2024/01/03 09:03:54;;;;;;;;;3.00;1.67;;;;;;;;5069637;28;8835;-79
2024/01/03 09:06:23;;;;;;;;;4.33;1.00;;;;;;;;5072226;28;8910;-80
2024/01/03 09:08:51;;;;;;;;;3.00;1.25;;;;;;;;5072308;28;8936;-81
2024/01/03 09:11:19;;;;;;;;;2.25;1.75;;;;;;;;5068402;28;8867;-78
2024/01/03 09:13:49;;;;;;;;;2.00;2.00;;;;;;;;5052363;28;9652;-79
2024/01/03 09:16:18;;;;;;;;;3.00;1.67;;;;;;;;5067866;28;9016;-76
2024/01/03 09:18:47;;;;;;;;;2.33;2.33;;;;;;;;5059754;28;8959;-76
2024/01/03 09:21:15;;;;;;;;;4.00;2.00;;;;;;;;5056246;28;8938;-79
2024/01/03 09:23:42;;;;;;;;;4.75;2.00;;;;;;;;5057815;28;8868;-77
2024/01/03 09:26:10;;;;;;;;;2.75;2.75;;;;;;;;5066231;28;8953;-76
2024/01/03 09:28:38;;;;;;;;;4.50;2.00;;;;;;;;5068891;28;8866;-77
2024/01/03 09:31:07;;;;;;;;;3.00;2.00;;;;;;;;5067116;28;8815;-81
2024/01/03 09:33:35;;;;;;;;;2.00;2.00;;;;;;;;5068292;28;8851;-79
2024/01/03 09:36:02;;;;;;;;;4.50;1.25;;;;;;;;5068429;28;8890;-79
2024/01/03 09:38:29;;;;;;;;;3.25;1.75;;;;;;;;5068068;28;8871;-76
2024/01/03 09:40:58;;;;;;;;;4.50;1.00;;;;;;;;5066864;28;8875;-79
2024/01/03 09:43:25;;;;;;;;;4.50;1.25;;;;;;;;5065810;28;8886;-77
2024/01/03 09:45:53;;;;;;;;;3.00;1.00;;;;;;;;5069024;28;8831;-80
2024/01/03 09:48:22;;;;;;;;;3.25;1.50;;;;;;;;5069299;28;8839;-78
2024/01/03 09:50:50;;;;;;;;;5.25;3.50;;;;;;;;5068194;28;8933;-80
2024/01/03 09:53:20;;;;;;;;;1.75;1.75;;;;;;;;5068813;28;8847;-76
2024/01/03 09:55:47;;;;;;;;;3.00;1.00;;;;;;;;5069379;28;8932;-80
2024/01/03 09:58:15;;;;;;;;;2.50;1.50;;;;;;;;5068810;28;8855;-81
2024/01/03 10:00:43;;;;;;;;;1.75;1.00;;;;;;;;5068758;28;9615;-79
2024/01/03 10:03:11;;;;;;;;;5.75;2.00;;;;;;;;5069158;28;8962;-80
2024/01/03 10:05:39;;;;;;;;;1.75;1.25;;;;;;;;5075391;28;8846;-75
2024/01/03 10:08:19;;;;;;;;;3.50;2.25;;;;;;;;5083894;28;8851;-77
2024/01/03 10:10:47;;;;;;;;;2.25;1.00;;;;;;;;5076176;28;8835;-75
2024/01/03 10:13:16;;;;;;;;;1.75;1.75;;;;;;;;5076148;28;8981;-77
2024/01/03 10:15:45;;;;;;;;;2.50;1.00;;;;;;;;5075263;28;8833;-78
2024/01/03 10:18:15;;;;;;;;;5.75;2.75;;;;;;;;5076907;28;8855;-78
2024/01/03 10:20:43;;;;;;;;;1.75;1.00;;;;;;;;5063453;28;9004;-75
2024/01/03 10:23:12;;;;;;;;;3.75;2.00;;;;;;;;5068374;28;9597;-80
2024/01/03 10:25:39;;;;;;;;;4.00;2.75;;;;;;;;5063835;28;8921;-80
2024/01/03 10:28:10;;;;;;;;;1.00;1.00;;;;;;;;5069909;28;8882;-77
2024/01/03 10:30:37;;;;;;;;;4.75;3.25;;;;;;;;5068899;28;8787;-76
2024/01/03 10:33:06;;;;;;;;;4.25;1.50;;;;;;;;5068831;28;8851;-76
2024/01/03 10:35:35;;;;;;;;;4.25;2.00;;;;;;;;5067163;28;8863;-77
2024/01/03 10:38:05;;;;;;;;;5.25;3.00;;;;;;;;5068375;28;8851;-78
2024/01/03 10:40:34;;;;;;;;;5.00;3.00;;;;;;;;5067120;28;8935;-81
2024/01/03 10:43:02;;;;;;;;;5.00;2.75;;;;;;;;5068030;28;8871;-81
2024/01/03 10:45:35;;;;;;;;;3.75;2.00;;;;;;;;5067785;28;8851;-80
2024/01/03 10:48:03;;;;;;;;;1.50;1.00;;;;;;;;5067985;28;8897;-77
2024/01/03 10:50:30;;;;;;;;;9.50;3.75;;;;;;;;5067889;28;9590;-80
2024/01/03 10:52:58;;;;;;;;;3.00;2.00;;;;;;;;5070223;28;8861;-77
2024/01/03 10:55:34;;;;;;;;;5.00;1.00;;;;;;;;5069725;28;8854;-78
2024/01/03 10:58:03;;;;;;;;;3.50;2.00;;;;;;;;5067459;28;8981;-78
2024/01/03 11:00:51;;;;;;;;;3.25;1.50;;;;;;;;5068658;28;8755;-81
2024/01/03 11:03:25;;;;;;;;;2.25;2.00;;;;;;;;5064773;28;8846;-79
2024/01/03 11:06:06;;;;;;;;;5.75;1.75;;;;;;;;5062934;28;8843;-83
2024/01/03 11:08:41;;;;;;;;;1.50;1.50;;;;;;;;5059701;28;8898;-79
2024/01/03 11:11:11;;;;;;;;;4.25;1.50;;;;;;;;5067849;28;8861;-80
2024/01/03 11:13:41;;;;;;;;;3.75;1.75;;;;;;;;5073876;28;8877;-82
2024/01/03 11:16:11;;;;;;;;;1.00;1.00;;;;;;;;5069491;28;8905;-79
2024/01/03 11:18:54;;;;;;;;;1.50;1.50;;;;;;;;5072103;28;8865;-77
2024/01/03 11:21:51;;;;;;;;;3.00;3.00;;;;;;;;5073554;28;8863;-75
2024/01/03 11:24:46;;;;;;;;;3.50;2.50;;;;;;;;5056587;28;8846;-75
2024/01/03 11:27:23;;;;;;;;;3.25;1.50;;;;;;;;5069920;28;8878;-76
2024/01/03 11:29:51;;;;;;;;;1.75;1.75;;;;;;;;5060221;28;8870;-77
2024/01/03 11:32:29;;;;;;;;;3.50;2.00;;;;;;;;5068527;28;8831;-75
2024/01/03 11:34:57;;;;;;;;;1.75;1.75;;;;;;;;5070104;28;8934;-76
2024/01/03 11:37:40;;;;;;;;;2.00;1.00;;;;;;;;5070613;28;8878;-77
2024/01/03 11:40:10;;;;;;;;;3.25;1.50;;;;;;;;5067909;28;8882;-74
2024/01/03 11:42:39;;;;;;;;;3.50;2.00;;;;;;;;5068591;28;8859;-75
2024/01/03 11:45:08;;;;;;;;;1.25;1.25;;;;;;;;5070549;28;8889;-77
2024/01/03 11:47:37;;;;;;;;;2.75;1.75;;;;;;;;5070677;28;8870;-78
2024/01/03 11:50:05;;;;;;;;;2.00;2.00;;;;;;;;5071340;28;8862;-77
2024/01/03 11:52:36;;;;;;;;;6.00;3.75;;;;;;;;5071225;28;8859;-75
2024/01/03 11:55:05;;;;;;;;;2.00;0.50;;;;;;;;5072645;28;8937;-76
2024/01/03 11:57:34;;;;;;;;;2.75;2.75;;;;;;;;5074898;28;8873;-75
2024/01/03 12:00:07;;;;;;;;;2.50;2.00;;;;;;;;5061183;28;8857;-76
2024/01/03 12:02:34;;;;;;;;;2.25;1.00;;;;;;;;5064051;28;8969;-77
2024/01/03 12:05:02;;;;;;;;;2.50;2.50;;;;;;;;5064146;28;8936;-78
2024/01/03 12:07:32;;;;;;;;;3.00;1.50;;;;;;;;5065998;28;8989;-76
2024/01/03 12:10:00;;;;;;;;;2.75;2.75;;;;;;;;5071542;28;9000;-75
2024/01/03 12:12:29;;;;;;;;;2.50;2.50;;;;;;;;5070016;28;8977;-75
2024/01/03 12:14:57;;;;;;;;;3.50;2.00;;;;;;;;5069460;28;9395;-77
2024/01/03 12:17:27;;;;;;;;;1.00;1.00;;;;;;;;5071034;28;8835;-76
2024/01/03 12:19:57;;;;;;;;;2.50;2.00;;;;;;;;5072178;28;8867;-76
2024/01/03 12:22:24;;;;;;;;;5.00;1.25;;;;;;;;5068946;28;8957;-79
2024/01/03 12:24:52;;;;;;;;;2.25;1.25;;;;;;;;5058460;28;8858;-78
2024/01/03 12:27:23;;;;;;;;;3.00;1.50;;;;;;;;5069871;28;8878;-74
2024/01/03 12:29:51;;;;;;;;;4.50;1.00;;;;;;;;5070962;28;8882;-76
2024/01/03 12:32:20;;;;;;;;;0.75;0.75;;;;;;;;5073332;28;8811;-80
2024/01/03 12:34:49;;;;;;;;;2.00;0.25;;;;;;;;5071771;28;8846;-78
2024/01/03 12:37:16;;;;;;;;;1.75;0.00;;;;;;;;5069008;28;8835;-75
2024/01/03 12:39:44;;;;;;;;;1.25;1.00;;;;;;;;5071907;28;8866;-78
2024/01/03 12:42:12;;;;;;;;;0.75;0.75;;;;;;;;5070888;28;8887;-79
2024/01/03 12:44:42;;;;;;;;;3.50;0.50;;;;;;;;5071105;28;8897;-78
2024/01/03 12:47:10;;;;;;;;;0.25;0.25;;;;;;;;5067818;28;9671;-79
2024/01/03 12:49:39;;;;;;;;;1.50;1.00;;;;;;;;5069387;28;8867;-80
2024/01/03 12:52:08;;;;;;;;;0.00;0.00;;;;;;;;5069783;28;8846;-77
2024/01/03 12:54:36;;;;;;;;;3.00;0.75;;;;;;;;5069280;28;8986;-77
2024/01/03 12:57:06;;;;;;;;;1.25;1.25;;;;;;;;5068920;28;9614;-77
2024/01/03 12:59:35;;;;;;;;;1.50;1.00;;;;;;;;5056919;28;8936;-77
2024/01/03 13:02:02;;;;;;;;;1.00;0.75;;;;;;;;5070257;28;9640;-79
2024/01/03 13:04:29;;;;;;;;;3.50;1.00;;;;;;;;5069361;28;8838;-76
2024/01/03 13:06:56;;;;;;;;;1.75;1.75;;;;;;;;5069244;28;8864;-77
2024/01/03 13:09:25;;;;;;;;;1.75;1.75;;;;;;;;5069065;28;8884;-77
2024/01/03 13:11:53;;;;;;;;;2.00;0.00;;;;;;;;5069465;28;8846;-76
2024/01/03 13:14:20;;;;;;;;;3.25;1.00;;;;;;;;5068644;28;8859;-76
2024/01/03 13:16:47;;;;;;;;;1.00;1.00;;;;;;;;5069650;28;8861;-76
2024/01/03 13:19:15;;;;;;;;;3.00;0.00;;;;;;;;5069159;28;8847;-76
2024/01/03 13:21:42;;;;;;;;;2.00;0.00;;;;;;;;5069311;28;8846;-80
2024/01/03 13:24:10;;;;;;;;;0.00;0.00;;;;;;;;5053891;28;8917;-79
2024/01/03 13:26:41;;;;;;;;;0.00;0.00;;;;;;;;5059885;28;8949;-78
2024/01/03 13:29:08;;;;;;;;;0.00;0.00;;;;;;;;5069190;28;8868;-79
2024/01/03 13:31:35;;;;;;;;;3.00;0.00;;;;;;;;5068769;28;9589;-76
2024/01/03 13:34:03;;;;;;;;;0.00;0.00;;;;;;;;5069136;28;9037;-78
2024/01/03 13:36:30;;;;;;;;;1.00;1.00;;;;;;;;5069855;28;8961;-74
2024/01/03 13:38:57;;;;;;;;;0.00;0.00;;;;;;;;5069566;28;9024;-77
2024/01/03 13:41:27;;;;;;;;;2.00;1.00;;;;;;;;5070952;28;8980;-77
2024/01/03 13:43:59;;;;;;;;;0.00;0.00;;;;;;;;5071506;28;9170;-75
2024/01/03 13:46:29;;;;;;;;;2.00;0.00;;;;;;;;5070690;28;9231;-76
2024/01/03 13:48:56;;;;;;;;;1.00;0.00;;;;;;;;5071673;28;9183;-78
2024/01/03 13:51:24;;;;;;;;;0.00;0.00;;;;;;;;5059933;28;9204;-76
2024/01/03 13:53:53;;;;;;;;;3.33;0.33;;;;;;;;5064100;28;9375;-76
2024/01/03 13:56:21;;;;;;;;;1.33;0.00;;;;;;;;5066897;28;9175;-76
2024/01/03 13:58:48;;;;;;;;;0.00;0.00;;;;;;;;5057905;28;9973;-76
2024/01/03 14:01:19;;;;;;;;;1.00;0.00;;;;;;;;5051292;28;9289;-75
2024/01/03 14:03:46;;;;;;;;;0.00;0.00;;;;;;;;5057867;28;9416;-74
2024/01/03 14:06:14;;;;;;;;;0.00;0.00;;;;;;;;5062862;28;10326;-74
2024/01/03 14:08:42;;;;;;;;;0.00;0.00;;;;;;;;5067574;28;9583;-75
2024/01/03 14:11:09;;;;;;;;;0.00;0.00;;;;;;;;5063585;28;9721;-73
2024/01/03 14:13:36;;;;;;;;;0.00;0.00;;;;;;;;5060232;28;9642;-73
2024/01/03 14:16:07;;;;;;;;;0.00;0.00;;;;;;;;5067754;28;9767;-75
2024/01/03 14:18:35;;;;;;;;;0.00;0.00;;;;;;;;5067240;28;9692;-75
2024/01/03 14:21:04;;;;;;;;;0.00;0.00;;;;;;;;5068103;28;9881;-76
2024/01/03 14:23:33;;;;;;;;;0.00;0.00;;;;;;;;5058246;28;9734;-76
2024/01/03 14:26:00;;;;;;;;;0.00;0.00;;;;;;;;5067081;28;9759;-76
2024/01/03 14:28:30;;;;;;;;;0.00;0.00;;;;;;;;5070019;28;9925;-74
2024/01/03 14:30:57;;;;;;;;;0.00;0.00;;;;;;;;5069059;28;9856;-73
2024/01/03 14:33:24;;;;;;;;;0.00;0.00;;;;;;;;5069852;28;9860;-71
2024/01/03 14:35:53;;;;;;;;;0.75;0.00;;;;;;;;5070806;28;9726;-78
2024/01/03 14:38:20;;;;;;;;;0.00;0.00;;;;;;;;5072377;28;9687;-77
2024/01/03 14:40:49;;;;;;;;;1.00;0.00;;;;;;;;5068180;28;9768;-73
2024/01/03 14:43:30;;;;;;;;;0.25;0.00;;;;;;;;5071594;28;9708;-72
2024/01/03 14:46:00;;;;;;;;;0.00;0.00;;;;;;;;5061099;28;9533;-74
2024/01/03 14:48:29;;;;;;;;;2.25;0.00;;;;;;;;5070136;28;9631;-76
2024/01/03 14:50:58;;;;;;;;;1.75;0.00;;;;;;;;5070979;28;9497;-78
2024/01/03 14:53:25;;;;;;;;;0.00;0.00;;;;;;;;5071301;28;9550;-75
2024/01/03 14:55:53;;;;;;;;;0.00;0.00;;;;;;;;5071840;28;10422;-75
2024/01/03 14:58:21;;;;;;;;;0.00;0.00;;;;;;;;5070383;28;9522;-74
2024/01/03 15:00:49;;;;;;;;;0.00;0.00;;;;;;;;5072013;28;9474;-75
2024/01/03 15:03:16;;;;;;;;;0.00;0.00;;;;;;;;5071636;28;9561;-75
2024/01/03 15:05:46;;;;;;;;;0.00;0.00;;;;;;;;5071757;28;9622;-79
2024/01/03 15:08:16;;;;;;;;;0.00;0.00;;;;;;;;5070313;28;9529;-79